This is the latest recevied weather packets stored in our database for station/object KC9Q. If no packets are shown the sender has not sent any weather packets the latest 10 day(s).
| Time | Temp. | Humidity | Pressure | Rain* | Wind** | Luminosity | Snow |
|---|---|---|---|---|---|---|---|
| 1777402459 | 24.44° C | 71% | 1013.5 hPa | 0 mm | - | 338 W/m² | - |
| 1777402158 | 24.44° C | 71% | 1013.6 hPa | 0 mm | - | 369 W/m² | - |
| 1777401853 | 24.44° C | 71% | 1013.5 hPa | 0 mm | - | 371 W/m² | - |
| 1777401552 | 23.89° C | 71% | 1013.5 hPa | 0 mm | - | 338 W/m² | - |
| 1777401248 | 23.89° C | 70% | 1013.8 hPa | 0 mm | - | 318 W/m² | - |
| 1777400944 | 23.89° C | 70% | 1014.1 hPa | 0 mm | - | 327 W/m² | - |
| 1777400640 | 23.89° C | 72% | 1014.4 hPa | 0 mm | - | 339 W/m² | - |
| 1777400338 | 23.89° C | 70% | 1014.4 hPa | 0 mm | - | 360 W/m² | - |
| 1777400033 | 24.44° C | 70% | 1014.4 hPa | 0 mm | - | 360 W/m² | - |
| 1777399731 | 23.89° C | 70% | 1014.5 hPa | 0 mm | - | 316 W/m² | - |
| 1777399427 | 24.44° C | 69% | 1014.4 hPa | 0 mm | - | 296 W/m² | - |
| 1777399125 | 24.44° C | 69% | 1014.5 hPa | 0 mm | - | 315 W/m² | - |
| 1777398822 | 24.44° C | 71% | 1014.4 hPa | 0 mm | - | 399 W/m² | - |
| 1777398519 | 24.44° C | 71% | 1014.6 hPa | 0 mm | - | 343 W/m² | - |
| 1777398215 | 24.44° C | 69% | 1014.6 hPa | 0 mm | - | 399 W/m² | - |
| 1777397912 | 24.44° C | 68% | 1014.6 hPa | 0 mm | - | 316 W/m² | - |
| 1777397608 | 24.44° C | 70% | 1014.4 hPa | 0 mm | - | 393 W/m² | - |
| 1777397304 | 25° C | 68% | 1014.5 hPa | 0 mm | - | 421 W/m² | - |
| 1777397001 | 25° C | 66% | 1014.5 hPa | 0 mm | - | 462 W/m² | - |
| 1777396698 | 25° C | 68% | 1014.3 hPa | 0 mm | - | 721 W/m² | - |
| 1777396394 | 24.44° C | 69% | 1014.7 hPa | 0 mm | - | 862 W/m² | - |
| 1777396091 | 23.89° C | 70% | 1014.6 hPa | 0 mm | - | 355 W/m² | - |
| 1777395787 | 25° C | 67% | 1014.3 hPa | 0 mm | - | 431 W/m² | - |
| 1777395482 | 23.89° C | 71% | 1014.6 hPa | 0 mm | - | 985 W/m² | - |
| 1777395180 | 23.89° C | 69% | 1014.8 hPa | 0 mm | - | 995 W/m² | - |
* Rain latest hour (hover to see other rain measurements)
** Current wind speed in m/s (hover to see current wind gust speed)